Maple Lake, MN

4:29 PM CST on February 07, 2016 (GMT -0600)
Maple Lake Municipal

Weather History for KMGG - April, 2013

Change the Weather History Date:

Friday, April 12, 2013

  Actual Average (KSTC) Record (KSTC)
Temperature  
Mean Temperature 30 °F 43 °F  
Max Temperature 35 °F 55 °F 82 °F (1931)
Min Temperature 26 °F 31 °F 13 °F (1950)
Degree Days  
Heating Degree Days 34 22  
Month to date heating degree days 300  
Since 1 July heating degree days 7850  
Cooling Degree Days 0 0  
Month to date cooling degree days 0  
Year to date cooling degree days 0  
Moisture  
Dew Point 27 °F    
Average Humidity 88    
Maximum Humidity 98    
Minimum Humidity 70    
Precipitation  
Precipitation 0.03 in 0.08 in 0.90 in (1897)
Month to date precipitation 0.88  
Year to date precipitation 3.67  
Snow  
Snow 0.00 in 0.10 in 3.40 in (1991)
Month to date snowfall 1.6  
Since 1 July snowfall 44.3  
Snow Depth -    
Sea Level Pressure  
Sea Level Pressure 29.75 in    
Wind  
Wind Speed 8 mph (NNW)    
Max Wind Speed 13 mph    
Max Gust Speed 16 mph    
Visibility 7 miles    
Events Snow    
T = Trace of Precipitation, MM = Missing Value Source: NWS Daily Summary

Daily Weather History Graph

Daily Weather History Graph

Search for Another Location

Airport or City:

Trip Planner

Search our weather history database for the weather conditions in past years. The results will help you decide how hot, cold, wet, or windy it might be!

Date:

Astronomy

Apr. 12, 2013 Rise Set
Actual Time 6:35 AM CDT 7:58 PM CDT
Civil Twilight 6:05 AM CDT 8:29 PM CDT
Nautical Twilight 5:28 AM CDT 9:06 PM CDT
Astronomical Twilight 4:49 AM CDT 9:45 PM CDT
Moon 7:40 AM CDT (4/12) 10:36 PM CDT (4/12)
Length of Visible Light 14h 23m
Length of Day
13h 22m
Waxing Crescent, 5% of the Moon is Illuminated
Apr 12
Waxing Crescent
Apr 18
First Quarter
Apr 25
Full
May 2
Last Quarter
May 9
New

Hourly Weather History & Observations

Time (CDT) Temp. Windchill Dew Point Humidity Pressure Visibility Wind Dir Wind Speed Gust Speed Precip Events Conditions
12:16 AM 28.4 °F 19.1 °F 27.3 °F 96% 29.73 in 5.0 mi NNE 10.4 mph - N/A Snow Light Snow
12:36 AM 28.2 °F 20.2 °F 26.8 °F 94% 29.73 in 7.0 mi NNE 8.1 mph - N/A   Overcast
12:56 AM 28.2 °F 20.2 °F 26.6 °F 94% 29.73 in 5.0 mi NNE 8.1 mph - N/A Snow Light Snow
1:16 AM 28.0 °F 19.3 °F 26.6 °F 94% 29.73 in 10.0 mi NNE 9.2 mph - N/A   Overcast
1:36 AM 27.9 °F 18.4 °F 26.2 °F 94% 29.72 in 10.0 mi NNE 10.4 mph - N/A   Overcast
1:56 AM 27.9 °F 19.8 °F 26.1 °F 93% 29.72 in 7.0 mi NNE 8.1 mph - N/A   Overcast
2:16 AM 27.5 °F 20.2 °F 26.2 °F 95% 29.71 in 1.2 mi NNE 6.9 mph - N/A Snow Snow
2:36 AM 27.3 °F 19.9 °F 26.6 °F 97% 29.71 in 0.8 mi North 6.9 mph - N/A Snow Snow
2:56 AM 27.1 °F 20.7 °F 26.6 °F 98% 29.71 in 1.0 mi North 5.8 mph - 0.01 in Snow Snow
3:16 AM 27.1 °F 20.7 °F 26.6 °F 98% 29.71 in 1.0 mi North 5.8 mph - 0.01 in Snow Snow
3:36 AM 27.0 °F 19.5 °F 26.4 °F 98% 29.71 in 1.0 mi North 6.9 mph - 0.02 in Snow Snow
3:56 AM 27.1 °F 19.7 °F 26.6 °F 98% 29.70 in 1.8 mi North 6.9 mph - 0.02 in Snow Light Snow
4:16 AM 27.1 °F 19.7 °F 26.4 °F 97% 29.70 in 2.5 mi North 6.9 mph - N/A Snow Light Snow
4:36 AM 27.0 °F 18.7 °F 26.2 °F 97% 29.70 in 4.0 mi North 8.1 mph - N/A Snow Light Snow
4:56 AM 26.8 °F 19.3 °F 26.1 °F 97% 29.70 in 7.0 mi North 6.9 mph - N/A Snow Light Snow
5:16 AM 26.8 °F 19.3 °F 26.2 °F 98% 29.71 in 5.0 mi NNW 6.9 mph - N/A   Overcast
5:36 AM 27.0 °F 19.5 °F 26.2 °F 97% 29.70 in 1.8 mi NNW 6.9 mph - N/A Snow Light Snow
5:56 AM 27.0 °F 20.5 °F 26.2 °F 97% 29.70 in 2.5 mi NNW 5.8 mph - N/A Snow Light Snow
6:16 AM 27.0 °F 19.5 °F 26.4 °F 98% 29.70 in 1.5 mi NNW 6.9 mph - N/A Snow Light Snow
6:36 AM 27.1 °F 19.7 °F 26.6 °F 98% 29.70 in 3.0 mi North 6.9 mph - N/A Snow Light Snow
6:55 AM 27.1 °F 20.7 °F 26.4 °F 97% 29.70 in 2.0 mi NNW 5.8 mph - N/A Snow Light Snow
7:16 AM 27.0 °F 19.5 °F 26.4 °F 98% 29.70 in 4.0 mi North 6.9 mph - N/A   Overcast
7:36 AM 27.3 °F 22.0 °F 26.4 °F 96% 29.70 in 5.0 mi North 4.6 mph - N/A   Overcast
7:56 AM 27.9 °F 22.6 °F 26.6 °F 95% 29.70 in 10.0 mi North 4.6 mph - N/A   Overcast
8:16 AM 28.2 °F 22.0 °F 26.8 °F 94% 29.71 in 10.0 mi North 5.8 mph - N/A   Overcast
8:36 AM 28.8 °F 22.6 °F 27.0 °F 93% 29.70 in 10.0 mi North 5.8 mph - N/A   Overcast
8:56 AM 29.3 °F 23.2 °F 27.1 °F 92% 29.71 in 10.0 mi NNW 5.8 mph - N/A   Overcast
9:16 AM 29.3 °F 23.2 °F 27.1 °F 92% 29.72 in 10.0 mi NNW 5.8 mph - N/A   Overcast
9:36 AM 29.7 °F 23.7 °F 27.5 °F 92% 29.72 in 7.0 mi NW 5.8 mph - N/A   Overcast
9:56 AM 30.0 °F 24.1 °F 27.5 °F 90% 29.72 in 5.0 mi NW 5.8 mph - N/A   Overcast
10:16 AM 30.2 °F 24.3 °F 28.0 °F 92% 29.72 in 3.0 mi NNW 5.8 mph - N/A   Overcast
10:36 AM 31.1 °F 24.5 °F 28.2 °F 89% 29.73 in 3.0 mi NW 6.9 mph - N/A   Overcast
10:56 AM 31.5 °F 24.9 °F 28.4 °F 88% 29.73 in 3.0 mi NW 6.9 mph - N/A   Overcast
11:16 AM 32.0 °F 24.8 °F 28.2 °F 86% 29.73 in 10.0 mi NW 8.1 mph - N/A   Overcast
11:36 AM 32.5 °F 25.5 °F 28.4 °F 85% 29.73 in 10.0 mi NW 8.1 mph - N/A   Overcast
11:56 AM 32.9 °F 26.7 °F 27.5 °F 81% 29.74 in 10.0 mi NNW 6.9 mph - N/A   Overcast
12:16 PM 33.1 °F 25.5 °F 28.2 °F 82% 29.73 in 10.0 mi NNW 9.2 mph - N/A   Overcast
12:36 PM 33.3 °F 24.6 °F 28.4 °F 82% 29.74 in 10.0 mi NNW 11.5 mph - N/A   Overcast
12:56 PM 34.0 °F 26.0 °F 28.4 °F 80% 29.74 in 10.0 mi NNW 10.4 mph - N/A   Overcast
1:16 PM 34.3 °F 27.7 °F 28.6 °F 79% 29.74 in 10.0 mi NNW 8.1 mph - N/A   Overcast
1:36 PM 34.3 °F 25.9 °F 27.5 °F 76% 29.74 in 10.0 mi North 11.5 mph - N/A   Overcast
1:56 PM 34.2 °F 26.2 °F 27.0 °F 75% 29.75 in 10.0 mi NNW 10.4 mph - N/A   Overcast
2:16 PM 34.3 °F 26.5 °F 27.0 °F 74% 29.75 in 10.0 mi North 10.4 mph - N/A   Overcast
2:36 PM 34.3 °F 27.7 °F 27.0 °F 74% 29.75 in 10.0 mi NNW 8.1 mph - N/A   Overcast
2:56 PM 34.7 °F 26.4 °F 26.8 °F 73% 29.75 in 10.0 mi NNW 11.5 mph - N/A   Overcast
3:16 PM 34.3 °F 26.5 °F 27.0 °F 74% 29.76 in 10.0 mi North 10.4 mph - N/A Snow Light Snow
3:36 PM 34.5 °F 27.9 °F 26.6 °F 73% 29.76 in 10.0 mi NNW 8.1 mph - N/A Snow Light Snow
3:56 PM 34.3 °F 25.9 °F 26.6 °F 73% 29.77 in 10.0 mi NNW 11.5 mph - N/A   Overcast
4:16 PM 34.0 °F 26.6 °F 27.3 °F 77% 29.77 in 4.0 mi NNW 9.2 mph - N/A Snow Light Snow
4:36 PM 34.0 °F 26.0 °F 27.1 °F 76% 29.77 in 5.0 mi North 10.4 mph - N/A Snow Light Snow
4:56 PM 34.2 °F 25.2 °F 27.5 °F 77% 29.78 in 5.0 mi North 12.7 mph 16.1 mph N/A Snow Light Snow
5:16 PM 35.2 °F 27.6 °F 26.4 °F 70% 29.78 in 10.0 mi North 10.4 mph - N/A   Overcast
5:36 PM 34.5 °F 26.2 °F 26.4 °F 72% 29.79 in 10.0 mi NNW 11.5 mph - N/A   Overcast
5:56 PM 33.8 °F 25.8 °F 26.2 °F 74% 29.80 in 10.0 mi North 10.4 mph - N/A   Overcast
6:16 PM 33.4 °F 24.8 °F 26.6 °F 76% 29.80 in 10.0 mi North 11.5 mph - N/A   Overcast
6:36 PM 33.1 °F 25.5 °F 26.8 °F 78% 29.81 in 10.0 mi North 9.2 mph - N/A   Overcast
6:56 PM 32.9 °F 25.3 °F 27.1 °F 79% 29.81 in 10.0 mi NNW 9.2 mph - N/A   Overcast
7:16 PM 32.0 °F 24.8 °F 27.5 °F 83% 29.82 in 10.0 mi NNW 8.1 mph - N/A Snow Light Snow
7:36 PM 32.0 °F 24.8 °F 27.9 °F 85% 29.82 in 10.0 mi NNW 8.1 mph - N/A   Overcast
7:56 PM 31.8 °F 26.2 °F 28.0 °F 86% 29.82 in 10.0 mi NNW 5.8 mph - N/A   Overcast
8:16 PM 31.6 °F 25.1 °F 27.1 °F 83% 29.83 in 10.0 mi NNW 6.9 mph - N/A   Overcast
8:36 PM 31.1 °F 25.4 °F 27.7 °F 87% 29.83 in 7.0 mi NNW 5.8 mph - N/A Snow Light Snow
8:56 PM 30.7 °F 24.9 °F 28.2 °F 90% 29.84 in 5.0 mi NNW 5.8 mph - N/A Snow Light Snow
9:16 PM 30.2 °F 24.3 °F 28.4 °F 93% 29.84 in 7.0 mi NNW 5.8 mph - N/A Snow Light Snow
9:36 PM 29.8 °F 23.9 °F 28.4 °F 94% 29.85 in 5.0 mi NW 5.8 mph - N/A Snow Light Snow
9:56 PM 29.7 °F 24.7 °F 28.2 °F 94% 29.85 in 7.0 mi NW 4.6 mph - N/A Snow Light Snow
10:16 PM 29.3 °F 24.3 °F 28.0 °F 95% 29.85 in 10.0 mi NW 4.6 mph - N/A   Overcast
10:36 PM 29.1 °F 25.4 °F 28.0 °F 96% 29.85 in 10.0 mi NW 3.5 mph - N/A Snow Light Snow
10:56 PM 29.1 °F 24.1 °F 28.0 °F 96% 29.85 in 4.0 mi NW 4.6 mph - N/A Snow Light Snow
11:16 PM 29.3 °F 23.2 °F 28.4 °F 96% 29.85 in 4.0 mi NW 5.8 mph - N/A Snow Light Snow
11:36 PM 28.9 °F 23.9 °F 28.0 °F 96% 29.84 in 5.0 mi NW 4.6 mph - N/A Snow Light Snow
11:56 PM 28.8 °F 23.7 °F 27.9 °F 96% 29.84 in 4.0 mi WNW 4.6 mph - N/A Snow Light Snow